createdAt,value
2019-01-13T00:02:01.039Z,8.17
2019-01-13T00:04:29.883Z,8.19
2019-01-13T00:06:58.947Z,8.20
2019-01-13T00:09:27.695Z,8.20
2019-01-13T00:11:56.552Z,8.22
2019-01-13T00:14:26.811Z,8.25
2019-01-13T00:16:54.134Z,8.25
2019-01-13T00:19:22.921Z,8.24
2019-01-13T00:21:51.732Z,8.22
2019-01-13T00:24:20.522Z,8.22
2019-01-13T00:26:49.311Z,8.24
2019-01-13T00:29:18.231Z,8.26
2019-01-13T00:31:47.016Z,8.27
2019-01-13T00:34:15.822Z,8.26
2019-01-13T00:36:44.603Z,8.27
2019-01-13T00:39:13.403Z,8.26
2019-01-13T00:41:42.189Z,8.26
2019-01-13T00:44:11.006Z,8.27
2019-01-13T00:46:39.787Z,8.27
2019-01-13T00:49:08.571Z,8.27
2019-01-13T00:51:37.446Z,8.29
2019-01-13T00:54:06.294Z,8.29
2019-01-13T00:56:35.083Z,8.32
2019-01-13T00:59:03.911Z,8.33
2019-01-13T01:01:32.802Z,8.31
2019-01-13T01:04:01.621Z,8.31
2019-01-13T01:06:30.547Z,8.30
2019-01-13T01:08:59.693Z,8.29
2019-01-13T01:11:28.581Z,8.29
2019-01-13T01:13:57.446Z,8.30
2019-01-13T01:16:26.259Z,8.29
2019-01-13T01:18:55.079Z,8.30
2019-01-13T01:21:23.891Z,8.31
2019-01-13T01:23:52.727Z,8.32
2019-01-13T01:26:21.512Z,8.34
2019-01-13T01:28:50.363Z,8.34
2019-01-13T01:31:19.171Z,8.34
2019-01-13T01:33:47.973Z,8.35
2019-01-13T01:36:16.812Z,8.34
2019-01-13T01:38:45.657Z,8.32
2019-01-13T01:41:14.466Z,8.33
2019-01-13T01:43:43.354Z,8.35
2019-01-13T01:46:12.143Z,8.38
2019-01-13T01:48:40.983Z,8.39
2019-01-13T01:51:09.811Z,8.38
2019-01-13T01:53:38.599Z,8.39
2019-01-13T01:56:07.409Z,8.39
2019-01-13T01:58:36.194Z,8.41
2019-01-13T02:01:05.039Z,8.42
2019-01-13T02:03:33.845Z,8.44
2019-01-13T02:06:03.430Z,8.44
2019-01-13T02:08:32.313Z,8.45
2019-01-13T02:11:01.207Z,8.44
2019-01-13T02:13:30.006Z,8.44
2019-01-13T02:15:58.867Z,8.43
2019-01-13T02:18:27.732Z,8.40
2019-01-13T02:20:56.515Z,8.42
2019-01-13T02:23:25.371Z,8.42
2019-01-13T02:25:54.227Z,8.44
2019-01-13T02:28:23.042Z,8.40
2019-01-13T02:30:51.917Z,8.40
2019-01-13T02:33:20.698Z,8.39
2019-01-13T02:35:49.549Z,8.37
2019-01-13T02:38:18.650Z,8.38
2019-01-13T02:40:47.449Z,8.39
2019-01-13T02:43:16.327Z,8.37
2019-01-13T02:45:45.113Z,8.40
2019-01-13T02:48:13.949Z,8.43
2019-01-13T02:50:42.744Z,8.46
2019-01-13T02:53:11.549Z,8.49
2019-01-13T02:55:40.389Z,8.51
2019-01-13T02:58:09.179Z,8.51
2019-01-13T03:00:38.000Z,8.52
2019-01-13T03:03:08.046Z,8.53
2019-01-13T03:05:37.736Z,8.54
2019-01-13T03:08:06.550Z,8.54
2019-01-13T03:10:35.335Z,8.55
2019-01-13T03:13:04.173Z,8.53
2019-01-13T03:15:33.056Z,8.54
2019-01-13T03:18:01.831Z,8.54
2019-01-13T03:20:30.651Z,8.56
2019-01-13T03:22:59.436Z,8.55
2019-01-13T03:25:28.232Z,8.57
2019-01-13T03:27:57.083Z,8.59
2019-01-13T03:30:25.956Z,8.58
2019-01-13T03:32:55.652Z,8.58
2019-01-13T03:35:24.630Z,8.57
2019-01-13T03:37:53.407Z,8.56
2019-01-13T03:40:24.070Z,8.54
2019-01-13T03:42:52.933Z,8.55
2019-01-13T03:45:21.803Z,8.58
2019-01-13T03:47:50.581Z,8.58
2019-01-13T03:50:21.109Z,8.61
2019-01-13T03:52:53.262Z,8.62
2019-01-13T03:55:19.862Z,8.61
2019-01-13T03:57:48.659Z,8.62
2019-01-13T04:00:20.208Z,8.64
2019-01-13T04:02:49.601Z,8.63
2019-01-13T04:05:18.390Z,8.63
2019-01-13T04:07:47.178Z,8.64
2019-01-13T04:10:16.290Z,8.65
2019-01-13T04:12:45.206Z,8.68
2019-01-13T04:15:21.928Z,8.68
2019-01-13T04:17:50.715Z,8.70
2019-01-13T04:20:19.525Z,8.69
2019-01-13T04:22:48.342Z,8.70
2019-01-13T04:25:17.267Z,8.69
2019-01-13T04:27:46.146Z,8.70
2019-01-13T04:30:14.957Z,8.70
2019-01-13T04:32:43.748Z,8.71
2019-01-13T04:35:12.568Z,8.72
2019-01-13T04:37:41.346Z,8.73
2019-01-13T04:40:10.250Z,8.75
2019-01-13T04:42:39.053Z,8.73
2019-01-13T04:45:07.841Z,8.77
2019-01-13T04:47:36.686Z,8.78
2019-01-13T04:50:05.765Z,8.78
2019-01-13T04:52:34.570Z,8.78
2019-01-13T04:55:03.385Z,8.76
2019-01-13T04:57:32.276Z,8.78
2019-01-13T05:00:01.161Z,8.78
2019-01-13T05:02:30.727Z,8.80
2019-01-13T05:04:59.538Z,8.76
2019-01-13T05:07:28.331Z,8.82
2019-01-13T05:09:57.187Z,8.80
2019-01-13T05:12:27.809Z,8.81
2019-01-13T05:14:54.860Z,8.81
2019-01-13T05:17:23.707Z,8.80
2019-01-13T05:19:52.561Z,8.81
2019-01-13T05:22:21.450Z,8.83
2019-01-13T05:24:50.318Z,8.86
2019-01-13T05:27:19.087Z,8.85
2019-01-13T05:29:47.927Z,8.85
2019-01-13T05:32:16.754Z,8.84
2019-01-13T05:34:45.598Z,8.87
2019-01-13T05:37:14.438Z,8.86
2019-01-13T05:39:43.297Z,8.85
2019-01-13T05:42:12.139Z,8.86
2019-01-13T05:44:41.024Z,8.89
2019-01-13T05:47:09.891Z,8.88
2019-01-13T05:49:38.779Z,8.88
2019-01-13T05:52:07.575Z,8.89
2019-01-13T05:54:36.395Z,8.91
2019-01-13T05:57:05.187Z,8.93
2019-01-13T05:59:34.038Z,8.94
2019-01-13T06:02:02.955Z,8.96
2019-01-13T06:04:31.775Z,8.96
2019-01-13T06:07:00.662Z,8.95
2019-01-13T06:09:29.448Z,8.95
2019-01-13T06:11:58.331Z,8.96
2019-01-13T06:14:27.120Z,8.97
2019-01-13T06:16:55.887Z,8.98
2019-01-13T06:19:24.935Z,8.98
2019-01-13T06:21:53.723Z,8.97
2019-01-13T06:24:22.511Z,8.99
2019-01-13T06:26:51.444Z,9.00
2019-01-13T06:29:20.263Z,9.01
2019-01-13T06:31:56.110Z,9.04
2019-01-13T06:34:18.051Z,9.06
2019-01-13T06:36:46.844Z,9.07
2019-01-13T06:39:15.612Z,9.08
2019-01-13T06:41:44.483Z,9.11
2019-01-13T06:44:13.316Z,9.14
2019-01-13T06:46:42.104Z,9.13
2019-01-13T06:49:10.960Z,9.14
2019-01-13T06:51:39.759Z,9.16
2019-01-13T06:54:08.619Z,9.15
2019-01-13T06:56:37.506Z,9.18
2019-01-13T06:59:06.306Z,9.20
2019-01-13T07:01:35.156Z,9.21
2019-01-13T07:04:06.174Z,9.22
2019-01-13T07:06:34.967Z,9.24
2019-01-13T07:09:04.366Z,9.24
2019-01-13T07:11:33.274Z,9.26
2019-01-13T07:14:02.139Z,9.26
2019-01-13T07:16:30.995Z,9.26
2019-01-13T07:18:59.785Z,9.27
2019-01-13T07:21:28.671Z,9.29
2019-01-13T07:23:57.464Z,9.30
2019-01-13T07:26:26.253Z,9.30
2019-01-13T07:28:55.120Z,9.29
2019-01-13T07:31:23.919Z,9.31
2019-01-13T07:33:52.711Z,9.30
2019-01-13T07:36:21.530Z,9.30
2019-01-13T07:38:50.330Z,9.30
2019-01-13T07:41:19.138Z,9.32
2019-01-13T07:43:47.930Z,9.32
2019-01-13T07:46:16.711Z,9.33
2019-01-13T07:48:45.520Z,9.30
2019-01-13T07:51:14.363Z,9.34
2019-01-13T07:53:43.146Z,9.34
2019-01-13T07:56:12.511Z,9.35
2019-01-13T07:58:41.808Z,9.36
2019-01-13T08:01:10.583Z,9.37
2019-01-13T08:03:39.371Z,9.39
2019-01-13T08:06:08.219Z,9.38
2019-01-13T08:08:37.071Z,9.38
2019-01-13T08:11:05.870Z,9.38
2019-01-13T08:13:34.643Z,9.40
2019-01-13T08:16:03.418Z,9.40
2019-01-13T08:18:33.149Z,9.41
2019-01-13T08:21:02.059Z,9.40
2019-01-13T08:23:30.906Z,9.35
2019-01-13T08:25:59.667Z,9.42
2019-01-13T08:28:28.558Z,9.42
2019-01-13T08:30:57.377Z,9.52
2019-01-13T08:33:26.201Z,9.45
2019-01-13T08:35:55.039Z,9.44
2019-01-13T08:38:23.919Z,9.43
2019-01-13T08:40:52.713Z,9.46
2019-01-13T08:43:21.505Z,9.46
2019-01-13T08:45:50.615Z,9.43
2019-01-13T08:48:19.827Z,9.45
2019-01-13T08:50:49.344Z,9.46
2019-01-13T08:53:18.123Z,9.46
2019-01-13T08:55:46.912Z,9.46
2019-01-13T08:58:15.701Z,9.47
2019-01-13T09:00:45.363Z,9.47
2019-01-13T09:03:14.243Z,9.49
2019-01-13T09:05:43.084Z,9.49
2019-01-13T09:08:11.986Z,9.49
2019-01-13T09:10:40.831Z,9.49
2019-01-13T09:13:11.794Z,9.50
2019-01-13T09:15:40.602Z,9.49
2019-01-13T09:18:09.405Z,9.50
2019-01-13T09:20:38.236Z,9.51
2019-01-13T09:23:07.108Z,9.53
2019-01-13T09:25:37.058Z,9.51
2019-01-13T09:28:07.007Z,9.53
2019-01-13T09:30:35.783Z,9.51
2019-01-13T09:33:05.637Z,9.52
2019-01-13T09:35:35.199Z,9.52
2019-01-13T09:38:06.677Z,9.50
2019-01-13T09:40:34.527Z,9.52
2019-01-13T09:43:03.643Z,9.53
2019-01-13T09:45:32.556Z,9.54
2019-01-13T09:48:01.400Z,9.57
2019-01-13T09:50:30.255Z,9.57
2019-01-13T09:52:59.053Z,9.60
2019-01-13T09:55:27.865Z,9.56
2019-01-13T09:57:56.659Z,9.58
2019-01-13T10:00:31.291Z,9.60
2019-01-13T10:03:00.144Z,9.62
2019-01-13T10:05:28.983Z,9.61
2019-01-13T10:07:57.827Z,9.62
2019-01-13T10:10:26.696Z,9.61
2019-01-13T10:12:55.515Z,9.63
2019-01-13T10:15:24.340Z,9.64
2019-01-13T10:17:53.120Z,9.67
2019-01-13T10:20:22.038Z,9.68
2019-01-13T10:22:50.843Z,9.69
2019-01-13T10:25:19.637Z,9.70
2019-01-13T10:27:48.525Z,9.69
2019-01-13T10:30:20.815Z,9.67
2019-01-13T10:32:54.706Z,9.67
2019-01-13T10:35:18.426Z,9.64
2019-01-13T10:37:47.271Z,9.65
2019-01-13T10:40:17.986Z,9.65
2019-01-13T10:42:46.836Z,9.64
2019-01-13T10:45:15.723Z,9.66
2019-01-13T10:47:44.498Z,9.63
2019-01-13T10:50:18.113Z,9.68
2019-01-13T10:52:46.876Z,9.65
2019-01-13T10:55:15.995Z,9.70
2019-01-13T10:57:44.863Z,9.70
2019-01-13T11:00:17.476Z,9.71
2019-01-13T11:02:46.278Z,9.74
2019-01-13T11:05:15.100Z,9.74
2019-01-13T11:07:43.952Z,9.76
2019-01-13T11:10:13.658Z,9.77
2019-01-13T11:12:42.514Z,9.77
2019-01-13T11:15:11.451Z,9.76
2019-01-13T11:17:40.235Z,9.77
2019-01-13T11:20:15.576Z,9.80
2019-01-13T11:22:44.415Z,9.80
2019-01-13T11:25:13.316Z,9.81
2019-01-13T11:27:42.211Z,9.78
2019-01-13T11:30:13.899Z,9.74
2019-01-13T11:32:42.800Z,9.73
2019-01-13T11:35:11.977Z,9.72
2019-01-13T11:37:40.751Z,9.71
2019-01-13T11:40:11.404Z,9.70
2019-01-13T11:42:40.194Z,9.72
2019-01-13T11:45:09.696Z,9.72
2019-01-13T11:47:38.496Z,9.71
2019-01-13T11:50:10.441Z,9.71
2019-01-13T11:52:39.311Z,9.65
2019-01-13T11:55:09.638Z,9.70
2019-01-13T11:57:38.461Z,9.70
2019-01-13T12:00:12.331Z,9.70
2019-01-13T12:02:41.267Z,9.73
2019-01-13T12:05:10.053Z,9.77
2019-01-13T12:07:38.839Z,9.74
2019-01-13T12:10:09.967Z,9.70
2019-01-13T12:12:38.782Z,9.70
2019-01-13T12:15:10.295Z,9.71
2019-01-13T12:17:39.073Z,9.69
2019-01-13T12:20:09.939Z,9.68
2019-01-13T12:22:38.799Z,9.69
2019-01-13T12:25:08.838Z,9.71
2019-01-13T12:27:37.648Z,9.69
2019-01-13T12:30:08.147Z,9.71
2019-01-13T12:32:36.947Z,9.72
2019-01-13T12:35:05.831Z,9.74
2019-01-13T12:37:34.628Z,9.73
2019-01-13T12:40:03.463Z,9.74
2019-01-13T12:42:32.291Z,9.72
2019-01-13T12:45:01.100Z,9.72
2019-01-13T12:47:29.991Z,9.73
2019-01-13T12:49:58.849Z,9.71
2019-01-13T12:52:27.698Z,9.74
2019-01-13T12:54:56.528Z,9.76
2019-01-13T12:57:25.312Z,9.78
2019-01-13T12:59:54.176Z,9.77
2019-01-13T13:02:23.026Z,9.76
2019-01-13T13:04:51.834Z,9.79
2019-01-13T13:07:20.739Z,9.77
2019-01-13T13:09:49.617Z,9.78
2019-01-13T13:12:18.489Z,9.80
2019-01-13T13:14:47.331Z,9.79
2019-01-13T13:17:16.124Z,9.81
2019-01-13T13:19:44.945Z,9.83
2019-01-13T13:22:13.733Z,9.82
2019-01-13T13:24:42.576Z,9.79
2019-01-13T13:27:11.495Z,9.78
2019-01-13T13:29:40.346Z,9.78
2019-01-13T13:32:09.155Z,9.80
2019-01-13T13:34:37.923Z,9.78
2019-01-13T13:37:06.728Z,9.76
2019-01-13T13:39:35.506Z,9.74
2019-01-13T13:42:04.295Z,9.73
2019-01-13T13:44:33.133Z,9.74
2019-01-13T13:47:01.976Z,9.74
2019-01-13T13:49:30.959Z,9.73
2019-01-13T13:51:59.760Z,9.74
2019-01-13T13:54:28.657Z,9.74
2019-01-13T13:56:57.451Z,9.76
2019-01-13T13:59:26.291Z,9.75
2019-01-13T14:01:55.088Z,9.73
2019-01-13T14:04:23.907Z,9.73
2019-01-13T14:06:52.697Z,9.74
2019-01-13T14:09:21.567Z,9.73
2019-01-13T14:11:50.344Z,9.75
2019-01-13T14:14:19.147Z,9.75
2019-01-13T14:16:48.039Z,9.74
2019-01-13T14:19:16.839Z,9.74
2019-01-13T14:21:45.633Z,9.73
2019-01-13T14:24:14.505Z,9.72
2019-01-13T14:26:43.275Z,9.72
2019-01-13T14:29:12.222Z,9.74
2019-01-13T14:31:41.092Z,9.75
2019-01-13T14:34:09.851Z,9.77
2019-01-13T14:36:38.661Z,9.74
2019-01-13T14:39:08.384Z,9.76
2019-01-13T14:41:37.167Z,9.74
2019-01-13T14:44:06.027Z,9.77
2019-01-13T14:46:34.941Z,9.75
2019-01-13T14:49:03.547Z,9.77
2019-01-13T14:51:32.375Z,9.78
2019-01-13T14:54:01.231Z,9.78
2019-01-13T14:56:30.086Z,9.79
2019-01-13T14:59:00.047Z,9.79
2019-01-13T15:01:28.858Z,9.79
2019-01-13T15:04:00.018Z,9.80
2019-01-13T15:06:26.592Z,9.81
2019-01-13T15:08:55.623Z,9.82
2019-01-13T15:11:24.451Z,9.82
2019-01-13T15:13:53.291Z,9.81
2019-01-13T15:16:22.120Z,9.78
2019-01-13T15:18:50.968Z,9.81
2019-01-13T15:21:19.763Z,9.79
2019-01-13T15:23:48.682Z,9.79
2019-01-13T15:26:17.526Z,9.79
2019-01-13T15:28:46.420Z,9.79
2019-01-13T15:31:15.315Z,9.80
2019-01-13T15:33:44.151Z,9.81
2019-01-13T15:36:13.027Z,9.81
2019-01-13T15:38:41.833Z,9.81
2019-01-13T15:41:10.707Z,9.81
2019-01-13T15:43:39.566Z,9.82
2019-01-13T15:46:08.360Z,9.82
2019-01-13T15:48:37.172Z,9.83
2019-01-13T15:51:05.971Z,9.82
2019-01-13T15:53:34.818Z,9.81
2019-01-13T15:56:03.646Z,9.81
2019-01-13T15:58:32.566Z,9.82
2019-01-13T16:01:01.495Z,9.81
2019-01-13T16:03:30.380Z,9.81
2019-01-13T16:05:59.219Z,9.80
2019-01-13T16:08:28.067Z,9.80
2019-01-13T16:10:56.957Z,9.82
2019-01-13T16:13:25.753Z,9.82
2019-01-13T16:15:54.996Z,9.83
2019-01-13T16:18:23.859Z,9.82
2019-01-13T16:20:52.691Z,9.83
2019-01-13T16:23:21.543Z,9.83
2019-01-13T16:25:50.369Z,9.84
2019-01-13T16:28:19.218Z,9.82
2019-01-13T16:30:48.012Z,9.83
2019-01-13T16:33:16.848Z,9.81
2019-01-13T16:35:45.706Z,9.75
2019-01-13T16:38:14.660Z,9.71
2019-01-13T16:40:47.490Z,9.73
2019-01-13T16:43:16.418Z,9.75
2019-01-13T16:45:45.380Z,9.75
2019-01-13T16:48:19.711Z,9.76
2019-01-13T16:50:49.553Z,9.77
2019-01-13T16:53:21.151Z,9.75
2019-01-13T16:55:50.004Z,9.76
2019-01-13T16:58:18.902Z,9.76
2019-01-13T17:00:47.772Z,9.75
2019-01-13T17:03:16.677Z,9.70
2019-01-13T17:05:45.847Z,9.61
2019-01-13T17:08:14.656Z,9.45
2019-01-13T17:10:43.453Z,9.16
2019-01-13T17:13:12.255Z,8.94
2019-01-13T17:15:41.067Z,8.78
2019-01-13T17:18:09.892Z,8.68
2019-01-13T17:20:38.706Z,8.61
2019-01-13T17:23:07.610Z,8.53
2019-01-13T17:25:36.524Z,8.46
2019-01-13T17:28:05.375Z,8.37
2019-01-13T17:30:35.354Z,8.37
2019-01-13T17:33:04.467Z,8.36
2019-01-13T17:35:33.291Z,8.38
2019-01-13T17:38:02.164Z,8.36
2019-01-13T17:40:30.969Z,8.34
2019-01-13T17:42:59.763Z,8.35
2019-01-13T17:45:31.256Z,8.34
2019-01-13T17:48:00.102Z,8.29
2019-01-13T17:50:28.944Z,8.24
2019-01-13T17:52:57.751Z,8.19
2019-01-13T17:55:27.743Z,8.15
2019-01-13T17:57:56.591Z,8.12
2019-01-13T18:00:34.334Z,8.12
2019-01-13T18:03:03.496Z,8.12
2019-01-13T18:05:32.332Z,8.09
2019-01-13T18:08:01.131Z,8.11
2019-01-13T18:10:29.996Z,8.13
2019-01-13T18:13:00.247Z,8.14
2019-01-13T18:15:29.219Z,8.17
2019-01-13T18:17:58.058Z,8.20
2019-01-13T18:20:26.836Z,8.21
2019-01-13T18:22:55.636Z,8.23
2019-01-13T18:25:24.456Z,8.25
2019-01-13T18:27:53.389Z,8.29
2019-01-13T18:30:23.351Z,8.30
2019-01-13T18:32:52.135Z,8.33
2019-01-13T18:35:21.487Z,8.37
2019-01-13T18:37:50.260Z,8.38
2019-01-13T18:40:19.383Z,8.34
2019-01-13T18:42:48.200Z,8.33
2019-01-13T18:45:17.022Z,8.35
2019-01-13T18:47:45.855Z,8.36
2019-01-13T18:50:16.547Z,8.36
2019-01-13T18:52:50.094Z,8.32
2019-01-13T18:55:18.939Z,8.33
2019-01-13T18:57:47.723Z,8.31
2019-01-13T19:00:18.747Z,8.32
2019-01-13T19:02:47.627Z,8.34
2019-01-13T19:05:18.364Z,8.29
2019-01-13T19:07:47.152Z,8.28
2019-01-13T19:10:23.610Z,8.24
2019-01-13T19:12:57.076Z,8.21
2019-01-13T19:15:25.864Z,8.15
2019-01-13T19:17:56.236Z,8.10
2019-01-13T19:20:28.296Z,8.07
2019-01-13T19:23:01.372Z,8.02
2019-01-13T19:25:32.220Z,7.97
2019-01-13T19:28:01.011Z,7.95
2019-01-13T19:30:29.854Z,7.98
2019-01-13T19:32:58.633Z,7.96
2019-01-13T19:35:27.436Z,7.99
2019-01-13T19:37:56.342Z,8.04
2019-01-13T19:40:25.239Z,8.10
2019-01-13T19:42:54.035Z,8.14
2019-01-13T19:45:22.840Z,8.15
2019-01-13T19:47:51.668Z,8.17
2019-01-13T19:50:22.671Z,8.19
2019-01-13T19:52:51.495Z,8.24
2019-01-13T19:55:20.305Z,8.28
2019-01-13T19:57:49.095Z,8.29
2019-01-13T20:00:20.967Z,8.29
2019-01-13T20:02:49.570Z,8.29
2019-01-13T20:05:18.350Z,8.31
2019-01-13T20:07:47.240Z,8.30
2019-01-13T20:10:16.050Z,8.29
2019-01-13T20:12:44.863Z,8.34
2019-01-13T20:15:14.132Z,8.35
2019-01-13T20:17:43.604Z,8.35
2019-01-13T20:20:13.735Z,8.31
2019-01-13T20:22:42.523Z,8.26
2019-01-13T20:25:12.123Z,8.18
2019-01-13T20:27:40.934Z,8.16
2019-01-13T20:30:13.810Z,8.14
2019-01-13T20:32:43.666Z,8.16
2019-01-13T20:35:18.983Z,8.21
2019-01-13T20:37:41.343Z,8.20
2019-01-13T20:40:10.276Z,8.23
2019-01-13T20:42:39.115Z,8.21
2019-01-13T20:45:12.448Z,8.21
2019-01-13T20:47:41.236Z,8.25
2019-01-13T20:50:11.707Z,8.27
2019-01-13T20:52:40.595Z,8.26
2019-01-13T20:55:09.874Z,8.26
2019-01-13T20:57:38.721Z,8.27
2019-01-13T21:00:10.647Z,8.27
2019-01-13T21:02:39.924Z,8.28
2019-01-13T21:05:08.695Z,8.25
2019-01-13T21:07:37.499Z,8.20
2019-01-13T21:10:07.852Z,8.18
2019-01-13T21:12:36.634Z,8.16
2019-01-13T21:15:07.301Z,8.12
2019-01-13T21:17:36.382Z,8.08
2019-01-13T21:20:06.573Z,8.08
2019-01-13T21:22:35.698Z,8.06
2019-01-13T21:25:05.715Z,8.01
2019-01-13T21:27:34.495Z,7.98
2019-01-13T21:30:03.531Z,7.93
2019-01-13T21:32:32.471Z,7.89
2019-01-13T21:35:01.432Z,7.91
2019-01-13T21:37:30.096Z,7.97
2019-01-13T21:39:58.964Z,7.99
2019-01-13T21:42:27.750Z,8.02
2019-01-13T21:44:56.567Z,8.01
2019-01-13T21:47:25.369Z,7.92
2019-01-13T21:49:54.226Z,7.75
2019-01-13T21:52:23.083Z,7.64
2019-01-13T21:54:51.916Z,7.51
2019-01-13T21:57:21.444Z,7.40
2019-01-13T21:59:50.251Z,7.38
2019-01-13T22:02:19.054Z,7.36
2019-01-13T22:04:47.843Z,7.30
2019-01-13T22:07:16.623Z,7.27
2019-01-13T22:09:45.428Z,7.22
2019-01-13T22:12:20.980Z,7.19
2019-01-13T22:14:49.815Z,7.13
2019-01-13T22:17:18.630Z,7.06
2019-01-13T22:19:47.460Z,7.03
2019-01-13T22:22:16.231Z,7.05
2019-01-13T22:24:45.033Z,7.08
2019-01-13T22:27:13.816Z,7.11
2019-01-13T22:29:42.679Z,7.15
2019-01-13T22:32:11.463Z,7.19
2019-01-13T22:37:15.335Z,7.18
2019-01-13T22:39:44.140Z,7.16
2019-01-13T22:42:12.928Z,7.16
2019-01-13T22:44:41.705Z,7.16
2019-01-13T22:47:10.489Z,7.13
2019-01-13T22:49:39.263Z,7.02
2019-01-13T22:52:08.101Z,6.93
2019-01-13T22:54:36.896Z,6.86
2019-01-13T22:57:05.743Z,6.79
2019-01-13T22:59:34.604Z,6.74
2019-01-13T23:02:03.423Z,6.72
2019-01-13T23:04:32.239Z,6.69
2019-01-13T23:07:01.025Z,6.68
2019-01-13T23:09:29.867Z,6.68
2019-01-13T23:11:58.767Z,6.69
2019-01-13T23:14:27.576Z,6.75
2019-01-13T23:16:56.358Z,6.81
2019-01-13T23:19:25.131Z,6.88
2019-01-13T23:21:54.036Z,6.91
2019-01-13T23:24:22.935Z,6.91
2019-01-13T23:26:51.768Z,6.94
2019-01-13T23:29:20.586Z,6.93
2019-01-13T23:31:49.412Z,6.91
2019-01-13T23:34:18.183Z,6.90
2019-01-13T23:36:46.955Z,6.92
2019-01-13T23:39:15.755Z,6.95
2019-01-13T23:41:44.585Z,6.98
2019-01-13T23:44:13.431Z,7.01
2019-01-13T23:46:42.199Z,7.04
2019-01-13T23:49:10.995Z,7.06
2019-01-13T23:51:39.774Z,7.06
2019-01-13T23:54:08.603Z,7.08
2019-01-13T23:56:37.461Z,7.09
2019-01-13T23:59:06.239Z,7.11
